Time;durP1;ratioP1;P1;durP2;ratioP2;P2;SDS_P1;SDS_P2;PMS_P1;PMS_P2;Temp;Humidity;BMP_temperature;BMP_pressure;BME280_temperature;BME280_humidity;BME280_pressure;Samples;Min_cycle;Max_cycle;Signal;HPM_P1;HPM_P2
2022/01/20 00:01:36;;;;;;;52.08;33.00;;;20.90;92.90;;;;;;4207012;28;20126;-66
2022/01/20 00:03:40;;;;;;;40.72;25.52;;;20.80;92.90;;;;;;4207165;28;20039;-66
2022/01/20 00:28:13;;;;;;;17.17;12.60;;;21.10;92.50;;;;;;4204655;28;20101;-65
2022/01/20 00:30:34;;;;;;;25.13;12.02;;;21.20;92.70;;;;;;4187411;28;20103;-65
2022/01/20 00:39:21;;;;;;;15.00;11.00;;;21.20;92.50;;;;;;4206513;28;20052;-63
2022/01/20 00:41:26;;;;;;;16.67;12.10;;;21.20;92.00;;;;;;4186786;28;20128;-67
2022/01/20 00:43:30;;;;;;;18.40;11.70;;;21.30;92.10;;;;;;4206179;28;20052;-65
2022/01/20 00:45:35;;;;;;;17.10;10.25;;;21.30;92.00;;;;;;4188346;28;20044;-65
2022/01/20 00:47:40;;;;;;;15.23;10.68;;;21.20;91.80;;;;;;4204929;28;20040;-65
2022/01/20 00:49:44;;;;;;;24.00;13.57;;;21.20;91.90;;;;;;4204628;28;20156;-65
2022/01/20 00:51:49;;;;;;;18.42;12.38;;;21.20;92.00;;;;;;4205969;28;20051;-66
2022/01/20 00:53:55;;;;;;;16.98;10.77;;;21.30;91.90;;;;;;4184881;28;20497;-65
2022/01/20 00:55:59;;;;;;;18.95;11.32;;;21.30;91.80;;;;;;4186309;28;20079;-66
2022/01/20 00:58:04;;;;;;;16.15;10.25;;;21.30;91.90;;;;;;4203919;28;20089;-67
2022/01/20 01:00:10;;;;;;;11.68;8.93;;;21.40;91.70;;;;;;4203948;28;20051;-64
2022/01/20 01:02:15;;;;;;;15.07;8.80;;;21.40;91.60;;;;;;4203898;28;20052;-64
2022/01/20 01:04:20;;;;;;;14.45;8.98;;;21.50;91.50;;;;;;4203560;28;20040;-64
2022/01/20 01:06:37;;;;;;;12.02;8.18;;;21.50;91.40;;;;;;4204803;28;20047;-63
2022/01/20 01:08:41;;;;;;;11.90;8.68;;;21.50;91.20;;;;;;4205228;28;20043;-65
2022/01/20 01:10:49;;;;;;;15.07;8.82;;;21.50;91.40;;;;;;4205222;28;20766;-64
2022/01/20 01:12:59;;;;;;;13.82;8.93;;;21.60;91.40;;;;;;4207124;28;20055;-65
2022/01/20 01:15:08;;;;;;;15.07;8.93;;;21.50;91.50;;;;;;4205137;28;20051;-67
2022/01/20 01:21:45;;;;;;;14.05;9.52;;;21.60;91.50;;;;;;4189726;28;20854;-65
2022/01/20 01:23:50;;;;;;;14.15;8.60;;;21.70;91.40;;;;;;4205228;28;20560;-66
2022/01/20 01:25:56;;;;;;;11.77;8.15;;;21.60;91.20;;;;;;4187449;28;20052;-66
2022/01/20 01:28:00;;;;;;;11.45;6.93;;;21.70;91.20;;;;;;4188801;28;20074;-67
2022/01/20 01:32:47;;;;;;;18.38;8.13;;;21.80;91.20;;;;;;4203872;28;20273;-65
2022/01/20 01:34:52;;;;;;;14.10;9.25;;;21.80;91.00;;;;;;4203535;28;20074;-66
2022/01/20 01:37:06;;;;;;;14.10;10.75;;;21.90;91.20;;;;;;4185898;28;20554;-67
2022/01/20 01:39:11;;;;;;;18.60;11.85;;;21.90;91.10;;;;;;4184883;28;20431;-65
2022/01/20 01:41:25;;;;;;;15.00;11.10;;;22.00;91.00;;;;;;4189722;28;20050;-66
2022/01/20 01:43:31;;;;;;;15.65;10.07;;;22.00;90.80;;;;;;4206721;28;21481;-66
2022/01/20 01:45:39;;;;;;;14.35;10.98;;;22.10;90.90;;;;;;4187699;28;20080;-67
2022/01/20 01:47:49;;;;;;;16.50;10.30;;;22.10;90.80;;;;;;4205765;28;20054;-66
2022/01/20 01:49:57;;;;;;;14.23;10.65;;;22.10;90.70;;;;;;4173268;28;20080;-66
2022/01/20 01:52:02;;;;;;;15.38;8.75;;;22.10;90.80;;;;;;4205076;28;20833;-66
2022/01/20 01:54:06;;;;;;;12.60;8.30;;;21.90;91.00;;;;;;4189265;28;20190;-66
2022/01/20 01:56:11;;;;;;;10.70;7.88;;;22.00;91.00;;;;;;4187603;28;20046;-67
2022/01/20 01:58:16;;;;;;;13.45;7.65;;;22.10;90.90;;;;;;4189728;28;20052;-64
2022/01/20 02:00:32;;;;;;;14.13;7.68;;;22.20;90.80;;;;;;4207411;28;20048;-64
2022/01/20 02:02:42;;;;;;;10.15;7.28;;;22.20;90.70;;;;;;4188486;28;20048;-64
2022/01/20 02:04:54;;;;;;;16.52;7.90;;;22.30;90.60;;;;;;4188421;28;20040;-65
2022/01/20 02:18:51;;;;;;;9.98;6.30;;;22.60;90.30;;;;;;4206075;28;20784;-64
2022/01/20 02:21:08;;;;;;;9.80;6.63;;;22.70;90.30;;;;;;4206824;28;20071;-65
2022/01/20 02:23:13;;;;;;;17.10;6.38;;;22.70;90.30;;;;;;4205440;28;20078;-66
2022/01/20 02:25:22;;;;;;;11.38;6.50;;;22.80;90.20;;;;;;4187768;28;20056;-64
2022/01/20 02:27:27;;;;;;;9.18;6.25;;;22.80;90.20;;;;;;4189143;28;20076;-63
2022/01/20 02:29:32;;;;;;;9.63;6.20;;;22.80;90.10;;;;;;4187886;28;20099;-65
2022/01/20 02:31:36;;;;;;;11.70;6.25;;;22.90;90.00;;;;;;4189132;28;20091;-64
2022/01/20 02:33:41;;;;;;;20.48;6.65;;;23.00;90.00;;;;;;4204706;28;20677;-65
2022/01/20 02:35:52;;;;;;;9.82;6.00;;;23.00;90.00;;;;;;4190565;28;20718;-65
2022/01/20 02:44:48;;;;;;;16.40;7.45;;;23.10;90.10;;;;;;4192331;28;20136;-66
2022/01/20 02:45:08;;;;;;;13.10;6.95;;;23.20;89.60;;;;;;4210144;28;20048;-66
2022/01/20 02:47:12;;;;;;;11.38;6.13;;;23.10;89.40;;;;;;4193932;28;20647;-66
2022/01/20 02:49:17;;;;;;;10.35;7.00;;;23.20;89.50;;;;;;4210687;28;20749;-65
2022/01/20 02:51:22;;;;;;;8.65;5.88;;;23.20;89.00;;;;;;4179914;28;20045;-67
2022/01/20 02:53:30;;;;;;;18.17;6.95;;;23.30;89.10;;;;;;4211178;28;20532;-62
2022/01/20 02:55:34;;;;;;;16.70;7.38;;;23.30;89.00;;;;;;4212057;28;20600;-65
2022/01/20 02:57:39;;;;;;;11.55;6.90;;;23.30;88.80;;;;;;4193763;28;20060;-66
2022/01/20 02:59:43;;;;;;;11.15;7.07;;;23.30;89.10;;;;;;4193678;28;20055;-66
2022/01/20 03:01:47;;;;;;;9.38;6.65;;;23.30;89.20;;;;;;4211718;28;20040;-65
2022/01/20 03:03:52;;;;;;;10.63;6.78;;;23.40;89.00;;;;;;4194066;28;20048;-67
2022/01/20 03:05:57;;;;;;;8.55;6.57;;;23.40;88.80;;;;;;4212012;28;20132;-67
2022/01/20 03:08:02;;;;;;;10.45;6.82;;;23.40;88.80;;;;;;4176705;28;20045;-67
2022/01/20 03:10:07;;;;;;;10.82;7.10;;;23.50;88.60;;;;;;4193220;28;20041;-68
2022/01/20 03:12:12;;;;;;;10.88;7.57;;;23.50;88.60;;;;;;4211784;28;20585;-67
2022/01/20 03:14:17;;;;;;;10.02;7.65;;;23.50;89.00;;;;;;4192671;28;20091;-67
2022/01/20 03:16:37;;;;;;;11.35;7.40;;;23.60;88.80;;;;;;4195294;28;20418;-67
2022/01/20 03:18:45;;;;;;;9.93;7.50;;;23.60;88.90;;;;;;4193501;28;20102;-68
2022/01/20 03:20:50;;;;;;;11.57;7.60;;;23.70;88.70;;;;;;4192314;28;20507;-68
2022/01/20 03:22:56;;;;;;;10.50;7.93;;;23.70;88.20;;;;;;4209107;28;20046;-68
2022/01/20 03:25:01;;;;;;;11.40;7.40;;;23.60;88.30;;;;;;4212907;28;20094;-68
2022/01/20 03:27:11;;;;;;;12.07;8.00;;;23.60;88.40;;;;;;4195733;28;20135;-68
2022/01/20 03:29:16;;;;;;;12.52;7.57;;;23.60;88.40;;;;;;4211281;28;20098;-67
2022/01/20 03:31:27;;;;;;;11.80;7.78;;;23.70;89.20;;;;;;4193632;28;20052;-68
2022/01/20 03:33:32;;;;;;;15.85;8.65;;;23.80;88.90;;;;;;4194397;28;20049;-67
2022/01/20 03:35:37;;;;;;;12.63;7.95;;;23.90;88.70;;;;;;4204781;28;20040;-67
2022/01/20 03:38:01;;;;;;;10.98;7.95;;;24.00;88.20;;;;;;4186168;28;20449;-62
2022/01/20 03:40:07;;;;;;;18.23;7.80;;;24.00;88.20;;;;;;4206824;28;20036;-67
2022/01/20 03:42:12;;;;;;;14.05;7.38;;;24.10;88.10;;;;;;4184749;28;20044;-66
2022/01/20 03:44:17;;;;;;;11.73;7.45;;;24.20;88.20;;;;;;4209838;28;20109;-68
2022/01/20 03:46:22;;;;;;;14.20;7.90;;;24.20;88.00;;;;;;4194537;28;20072;-66
2022/01/20 03:48:29;;;;;;;13.15;8.13;;;24.30;88.20;;;;;;4195249;28;20090;-68
2022/01/20 03:52:52;;;;;;;13.52;7.88;;;24.40;87.70;;;;;;4187985;28;20083;-65
2022/01/20 03:54:56;;;;;;;10.77;7.65;;;24.40;87.90;;;;;;4184896;28;20079;-66
2022/01/20 03:57:00;;;;;;;12.95;7.80;;;24.40;88.00;;;;;;4189338;28;20919;-66
2022/01/20 03:59:17;;;;;;;13.07;7.45;;;24.60;87.70;;;;;;4194464;28;20578;-66
2022/01/20 04:01:22;;;;;;;10.73;7.75;;;24.60;87.40;;;;;;4208783;28;20059;-66
2022/01/20 04:03:43;;;;;;;11.23;7.60;;;24.60;87.30;;;;;;4184488;28;20450;-66
2022/01/20 04:06:02;;;;;;;10.77;6.53;;;24.70;86.80;;;;;;4189299;28;20135;-65
2022/01/20 04:08:32;;;;;;;12.55;7.03;;;24.70;86.80;;;;;;4187771;28;20102;-66
2022/01/20 04:10:37;;;;;;;11.10;7.13;;;24.80;86.60;;;;;;4173294;28;20049;-67
2022/01/20 04:12:41;;;;;;;12.30;7.40;;;24.80;86.40;;;;;;4209500;28;20476;-66
2022/01/20 04:14:48;;;;;;;9.18;6.63;;;24.90;86.40;;;;;;4193281;28;20050;-67
2022/01/20 04:19:07;;;;;;;9.32;7.38;;;24.90;85.30;;;;;;4186278;28;20114;-67
2022/01/20 04:21:11;;;;;;;16.75;8.18;;;25.00;85.00;;;;;;4200738;28;20051;-66
2022/01/20 04:23:16;;;;;;;14.48;7.63;;;24.90;85.50;;;;;;4184638;28;20060;-66
2022/01/20 04:25:21;;;;;;;14.00;7.93;;;24.90;85.50;;;;;;4186440;28;20071;-65
2022/01/20 04:27:31;;;;;;;11.25;7.32;;;25.00;85.50;;;;;;4204246;28;20075;-65
2022/01/20 04:29:35;;;;;;;12.73;7.13;;;25.10;85.70;;;;;;4192464;28;20049;-65
2022/01/20 04:31:41;;;;;;;11.98;7.38;;;25.10;85.80;;;;;;4187232;28;20770;-66
2022/01/20 04:33:45;;;;;;;10.90;6.97;;;25.10;85.60;;;;;;4190055;28;20136;-67
2022/01/20 04:35:50;;;;;;;12.15;7.18;;;25.30;85.60;;;;;;4208556;28;20048;-66
2022/01/20 04:37:56;;;;;;;11.27;6.72;;;25.30;84.30;;;;;;4192663;28;20094;-65
2022/01/20 04:40:03;;;;;;;11.15;6.53;;;25.30;85.00;;;;;;4190855;28;20522;-66
2022/01/20 04:42:10;;;;;;;8.25;6.38;;;25.30;85.00;;;;;;4190409;28;20160;-64
2022/01/20 04:44:20;;;;;;;15.07;7.00;;;25.40;85.10;;;;;;4186728;28;20051;-66
2022/01/20 04:57:58;;;;;;;10.32;6.47;;;25.60;84.20;;;;;;4185924;28;20162;-68
2022/01/20 05:00:02;;;;;;;8.80;6.88;;;25.50;84.80;;;;;;4188526;28;20384;-65
2022/01/20 05:02:15;;;;;;;10.55;6.28;;;25.50;84.10;;;;;;4188427;28;20087;-66
2022/01/20 05:04:29;;;;;;;15.60;6.40;;;25.70;84.20;;;;;;4197949;28;20045;-66
2022/01/20 05:06:48;;;;;;;11.52;6.43;;;25.70;84.10;;;;;;4202748;28;20376;-65
2022/01/20 05:08:53;;;;;;;10.88;6.70;;;25.80;84.30;;;;;;4188264;28;20105;-65
2022/01/20 05:11:02;;;;;;;8.70;6.63;;;25.90;83.90;;;;;;4187526;28;20072;-65
2022/01/20 05:13:22;;;;;;;12.23;6.88;;;26.00;84.10;;;;;;4191729;28;20041;-66
2022/01/20 05:15:26;;;;;;;9.32;6.93;;;26.00;83.60;;;;;;4185436;28;20599;-64
2022/01/20 05:17:32;;;;;;;11.43;7.32;;;26.10;83.20;;;;;;4189488;28;20442;-66
2022/01/20 05:19:36;;;;;;;11.77;8.02;;;26.00;83.50;;;;;;4203847;28;20502;-67
2022/01/20 05:21:44;;;;;;;14.32;7.20;;;26.00;83.40;;;;;;4206668;28;20507;-67
2022/01/20 05:23:58;;;;;;;10.15;5.50;;;26.00;83.80;;;;;;4190821;28;20040;-68
2022/01/20 05:26:02;;;;;;;11.35;6.10;;;26.00;84.10;;;;;;4193105;28;20086;-67
2022/01/20 05:28:07;;;;;;;9.73;5.50;;;26.00;84.30;;;;;;4195004;28;20130;-67
2022/01/20 05:30:13;;;;;;;12.23;6.00;;;26.10;84.10;;;;;;4209415;28;20529;-67
2022/01/20 05:32:37;;;;;;;8.93;6.03;;;26.20;84.20;;;;;;4196317;28;20110;-71
2022/01/20 05:34:46;;;;;;;9.63;5.95;;;26.30;83.70;;;;;;4189159;28;20458;-66
2022/01/20 05:36:51;;;;;;;9.77;5.35;;;26.40;83.30;;;;;;4189716;28;20486;-67
2022/01/20 05:38:55;;;;;;;6.72;5.07;;;26.40;83.00;;;;;;4195152;28;20051;-66
2022/01/20 05:41:00;;;;;;;7.88;5.20;;;26.40;82.50;;;;;;4212011;28;20554;-68
2022/01/20 05:43:04;;;;;;;8.40;4.90;;;26.50;82.10;;;;;;4188439;28;20048;-65
2022/01/20 05:45:12;;;;;;;8.45;4.60;;;26.60;82.20;;;;;;4207487;28;20040;-66
2022/01/20 05:47:25;;;;;;;8.98;4.47;;;26.60;82.20;;;;;;4186182;28;20140;-66
2022/01/20 05:49:49;;;;;;;9.48;4.68;;;26.70;82.50;;;;;;4188284;28;20049;-70
2022/01/20 05:51:55;;;;;;;7.88;4.90;;;26.70;81.90;;;;;;4203823;28;20036;-67
2022/01/20 05:54:02;;;;;;;10.93;4.97;;;26.80;81.90;;;;;;4212363;28;20090;-66
2022/01/20 05:56:07;;;;;;;7.13;4.55;;;26.80;81.80;;;;;;4194869;28;20102;-69
2022/01/20 05:58:12;;;;;;;7.03;4.68;;;26.80;81.70;;;;;;4205414;28;20072;-67
2022/01/20 06:00:20;;;;;;;8.27;4.15;;;26.80;81.80;;;;;;4205634;28;20040;-68
2022/01/20 06:03:35;;;;;;;9.75;6.43;;;26.90;81.50;;;;;;4188033;28;20037;-68
2022/01/20 06:04:57;;;;;;;21.08;15.27;;;27.00;80.70;;;;;;4189054;28;20171;-69
2022/01/20 06:07:02;;;;;;;17.88;14.52;;;27.00;81.10;;;;;;4190642;28;20037;-67
2022/01/20 06:09:08;;;;;;;17.73;12.15;;;27.00;81.50;;;;;;4193386;28;20052;-68
2022/01/20 06:11:12;;;;;;;48.60;28.65;;;27.00;82.20;;;;;;4189785;28;20102;-67
2022/01/20 06:13:16;;;;;;;25.90;16.98;;;27.10;80.40;;;;;;4190329;28;20053;-68
2022/01/20 06:15:21;;;;;;;17.75;10.82;;;27.10;80.70;;;;;;4211196;28;20052;-68
2022/01/20 06:17:28;;;;;;;13.77;8.75;;;27.20;79.90;;;;;;4210079;28;20040;-67
2022/01/20 06:19:42;;;;;;;17.85;10.05;;;27.20;79.60;;;;;;4203850;28;20040;-68
2022/01/20 06:21:48;;;;;;;11.88;7.68;;;27.30;79.90;;;;;;4188992;28;20071;-66
2022/01/20 06:23:52;;;;;;;10.85;6.03;;;27.30;79.80;;;;;;4206248;28;20979;-66
2022/01/20 06:26:02;;;;;;;7.80;4.45;;;27.30;79.50;;;;;;4190756;28;20043;-65
2022/01/20 06:28:27;;;;;;;6.45;3.55;;;27.40;78.70;;;;;;4194558;28;20780;-67
2022/01/20 06:30:32;;;;;;;9.00;4.20;;;27.40;78.30;;;;;;4198456;28;20052;-66
2022/01/20 06:32:36;;;;;;;8.38;4.32;;;27.40;79.00;;;;;;4212539;28;20043;-66
2022/01/20 06:34:42;;;;;;;7.78;4.47;;;27.40;79.20;;;;;;4198669;28;20052;-67
2022/01/20 06:36:47;;;;;;;8.23;4.25;;;27.50;79.60;;;;;;4200778;28;20064;-67
2022/01/20 06:38:52;;;;;;;11.95;4.45;;;27.50;78.40;;;;;;4215243;28;20494;-66
2022/01/20 06:40:56;;;;;;;8.65;4.40;;;27.60;77.60;;;;;;4200331;28;20044;-69
2022/01/20 06:43:03;;;;;;;9.32;4.15;;;27.50;78.00;;;;;;4198668;28;20784;-65
2022/01/20 06:45:11;;;;;;;5.53;4.13;;;27.50;78.40;;;;;;4199278;28;20040;-66
2022/01/20 06:47:16;;;;;;;8.02;4.30;;;27.60;78.20;;;;;;4193532;28;20047;-66
2022/01/20 06:49:21;;;;;;;7.65;4.45;;;27.60;77.80;;;;;;4211758;28;20044;-66
2022/01/20 06:51:34;;;;;;;5.88;4.20;;;27.70;77.80;;;;;;4205871;28;20036;-64
2022/01/20 06:53:39;;;;;;;14.90;5.10;;;27.70;77.90;;;;;;4185875;28;20045;-67
2022/01/20 06:55:44;;;;;;;5.63;3.88;;;27.70;78.00;;;;;;4186696;28;20110;-67
2022/01/20 06:57:49;;;;;;;6.97;4.43;;;27.70;78.00;;;;;;4201620;28;20521;-67
2022/01/20 06:59:55;;;;;;;7.78;4.25;;;27.70;77.80;;;;;;4185843;28;20105;-67
2022/01/20 07:02:00;;;;;;;6.50;4.20;;;27.70;78.30;;;;;;4186436;28;20048;-66
2022/01/20 07:04:10;;;;;;;8.48;4.40;;;27.70;78.40;;;;;;4184961;28;20771;-66
2022/01/20 07:06:14;;;;;;;5.10;4.03;;;27.80;77.80;;;;;;4186455;28;20052;-67
2022/01/20 07:08:38;;;;;;;5.93;4.40;;;27.90;77.90;;;;;;4203308;28;20052;-67
2022/01/20 07:10:47;;;;;;;9.23;4.13;;;27.90;77.50;;;;;;4186453;28;20480;-66
2022/01/20 07:12:51;;;;;;;8.05;4.60;;;27.90;77.00;;;;;;4185688;28;20079;-66
2022/01/20 07:14:55;;;;;;;7.05;4.40;;;27.90;77.80;;;;;;4205183;28;20727;-66
2022/01/20 07:17:02;;;;;;;6.43;4.10;;;27.90;77.70;;;;;;4185942;28;20036;-67
2022/01/20 07:19:06;;;;;;;8.77;4.50;;;27.90;78.00;;;;;;4188592;28;20050;-66
2022/01/20 07:21:10;;;;;;;7.10;3.92;;;28.00;78.30;;;;;;4186371;28;20052;-67
2022/01/20 07:23:24;;;;;;;11.57;4.07;;;28.10;77.90;;;;;;4191527;28;20556;-67
2022/01/20 07:25:35;;;;;;;8.55;4.50;;;28.20;77.80;;;;;;4211874;28;20545;-66
2022/01/20 07:27:48;;;;;;;;;;;28.20;77.60;;;;;;4208293;28;20070;-65
2022/01/20 07:30:13;;;;;;;6.97;4.35;;;28.20;77.70;;;;;;4206846;28;19939;-66
2022/01/20 07:32:18;;;;;;;8.00;4.53;;;28.30;76.90;;;;;;4186639;28;20090;-66
2022/01/20 07:34:22;;;;;;;6.22;4.60;;;28.30;77.50;;;;;;4210045;28;20463;-65
2022/01/20 07:36:27;;;;;;;6.13;4.25;;;28.30;77.30;;;;;;4209381;28;20048;-67
2022/01/20 07:38:32;;;;;;;8.18;4.30;;;28.30;77.00;;;;;;4187288;28;20053;-67
2022/01/20 07:40:36;;;;;;;10.02;5.15;;;28.40;76.90;;;;;;4187188;28;20051;-66
2022/01/20 07:42:43;;;;;;;5.57;4.25;;;28.40;76.60;;;;;;4188446;28;20128;-66
2022/01/20 07:44:55;;;;;;;10.10;5.07;;;28.30;76.40;;;;;;4190487;28;20044;-65
2022/01/20 07:47:03;;;;;;;9.05;4.60;;;28.30;76.70;;;;;;4208799;28;20036;-68
2022/01/20 07:49:07;;;;;;;6.28;4.50;;;28.30;76.60;;;;;;4191531;28;20163;-68
2022/01/20 07:51:11;;;;;;;9.65;4.72;;;28.30;76.90;;;;;;4208269;28;20139;-67
2022/01/20 07:53:18;;;;;;;7.57;4.70;;;28.40;76.50;;;;;;4192642;28;20044;-67
2022/01/20 07:55:22;;;;;;;7.32;4.78;;;28.40;76.60;;;;;;4194308;28;20052;-67
2022/01/20 07:57:28;;;;;;;9.43;4.60;;;28.40;76.60;;;;;;4189561;28;20048;-67
2022/01/20 07:59:33;;;;;;;6.45;4.55;;;28.50;76.60;;;;;;4187549;28;20050;-66
2022/01/20 08:01:39;;;;;;;7.82;4.38;;;28.50;75.50;;;;;;4189681;28;20060;-68
2022/01/20 08:03:45;;;;;;;7.82;4.90;;;28.40;76.30;;;;;;4189701;28;20044;-67
2022/01/20 08:05:54;;;;;;;7.47;4.20;;;28.50;75.70;;;;;;4189938;28;20048;-66
2022/01/20 08:08:04;;;;;;;6.05;4.38;;;28.50;75.80;;;;;;4187086;28;20075;-66
2022/01/20 08:10:12;;;;;;;9.23;4.43;;;28.50;75.80;;;;;;4188269;28;20106;-67
2022/01/20 08:12:17;;;;;;;9.68;4.75;;;28.50;75.70;;;;;;4211709;28;20123;-67
2022/01/20 08:14:33;;;;;;;6.28;4.70;;;28.50;75.80;;;;;;4198982;28;20044;-68
2022/01/20 08:16:39;;;;;;;9.63;4.95;;;28.50;75.10;;;;;;4183799;28;20069;-65
2022/01/20 08:18:45;;;;;;;7.65;4.75;;;28.30;74.50;;;;;;4213319;28;20630;-65
2022/01/20 08:20:50;;;;;;;11.57;4.65;;;28.30;75.30;;;;;;4186743;28;20764;-67
2022/01/20 08:22:55;;;;;;;7.60;4.40;;;28.40;75.30;;;;;;4188180;28;20071;-65
2022/01/20 08:24:59;;;;;;;7.18;4.60;;;28.40;75.20;;;;;;4194141;28;20048;-66
2022/01/20 08:27:04;;;;;;;10.90;4.95;;;28.40;75.20;;;;;;4186687;28;20074;-65
2022/01/20 08:29:08;;;;;;;10.75;4.82;;;28.40;75.50;;;;;;4187771;28;20068;-66
2022/01/20 08:31:16;;;;;;;9.93;4.78;;;28.50;75.30;;;;;;4210464;28;20098;-64
2022/01/20 08:33:21;;;;;;;10.57;5.18;;;28.50;75.20;;;;;;4199386;28;20048;-66
2022/01/20 08:35:32;;;;;;;8.27;4.97;;;28.50;74.80;;;;;;4184754;28;20067;-66
2022/01/20 08:37:48;;;;;;;12.02;5.07;;;28.40;74.60;;;;;;4179721;28;20128;-65
2022/01/20 08:39:52;;;;;;;9.40;4.90;;;28.40;74.30;;;;;;4186675;28;20822;-64
2022/01/20 08:41:57;;;;;;;13.77;5.28;;;28.20;74.40;;;;;;4186686;28;20036;-64
2022/01/20 08:44:01;;;;;;;9.77;5.00;;;28.20;74.80;;;;;;4186660;28;20139;-65
2022/01/20 08:46:07;;;;;;;10.73;5.00;;;28.20;75.00;;;;;;4203313;28;20687;-66
2022/01/20 08:48:13;;;;;;;6.07;4.82;;;28.20;75.20;;;;;;4178900;28;21006;-65
2022/01/20 08:50:31;;;;;;;7.25;5.03;;;28.20;75.40;;;;;;4187317;28;20040;-67
2022/01/20 08:52:36;;;;;;;10.48;5.40;;;28.30;75.90;;;;;;4179223;28;20383;-67
2022/01/20 08:54:40;;;;;;;7.95;5.50;;;28.30;76.00;;;;;;4182325;28;20041;-67
2022/01/20 08:56:53;;;;;;;9.48;5.63;;;28.30;76.20;;;;;;4206593;28;20051;-65
2022/01/20 08:58:58;;;;;;;8.77;5.45;;;28.40;75.80;;;;;;4187138;28;20064;-66
2022/01/20 09:01:04;;;;;;;9.13;5.55;;;28.40;75.90;;;;;;4175624;28;20099;-65
2022/01/20 09:03:10;;;;;;;7.22;4.90;;;28.40;75.80;;;;;;4200883;28;20110;-66
2022/01/20 09:05:14;;;;;;;5.82;4.75;;;28.40;75.20;;;;;;4208745;28;20058;-66
2022/01/20 09:07:26;;;;;;;9.88;5.05;;;28.40;75.40;;;;;;4192566;28;20033;-65
2022/01/20 09:09:30;;;;;;;8.77;5.45;;;28.40;75.90;;;;;;4193567;28;20040;-64
2022/01/20 09:11:38;;;;;;;10.15;6.63;;;28.40;76.00;;;;;;4183790;28;20058;-64
2022/01/20 09:16:08;;;;;;;11.18;6.25;;;28.40;76.60;;;;;;4186047;28;20774;-64
2022/01/20 09:18:32;;;;;;;11.63;6.18;;;28.30;75.00;;;;;;4193259;28;20586;-65
2022/01/20 09:20:37;;;;;;;7.57;5.60;;;28.30;76.00;;;;;;4208220;28;20050;-64
2022/01/20 09:22:41;;;;;;;8.20;5.40;;;28.40;76.10;;;;;;4202625;28;20048;-64
2022/01/20 09:24:47;;;;;;;9.02;5.55;;;28.40;76.10;;;;;;4184370;28;20720;-65
2022/01/20 09:26:52;;;;;;;9.27;5.35;;;28.40;76.00;;;;;;4203391;28;20048;-65
2022/01/20 09:28:57;;;;;;;7.85;4.53;;;28.40;76.00;;;;;;4186157;28;20064;-65
2022/01/20 09:31:04;;;;;;;10.75;5.00;;;28.40;76.10;;;;;;4191597;28;20045;-65
2022/01/20 09:35:13;;;;;;;8.10;6.28;;;28.40;75.90;;;;;;4189456;28;20360;-63
2022/01/20 09:37:18;;;;;;;11.68;6.13;;;28.40;75.90;;;;;;4205640;28;20405;-65
2022/01/20 09:39:24;;;;;;;9.65;6.25;;;28.40;75.70;;;;;;4191286;28;20102;-65
2022/01/20 09:41:42;;;;;;;11.80;6.80;;;28.40;76.00;;;;;;4193582;28;20127;-65
2022/01/20 09:43:47;;;;;;;10.32;6.53;;;28.30;75.60;;;;;;4191853;28;20040;-65
2022/01/20 09:45:55;;;;;;;8.57;6.28;;;28.30;76.20;;;;;;4194816;28;20051;-65
2022/01/20 09:48:02;;;;;;;9.35;6.35;;;28.20;76.40;;;;;;4191057;28;20064;-65
2022/01/20 09:50:20;;;;;;;9.73;6.35;;;28.20;75.90;;;;;;4193228;28;20092;-65
2022/01/20 09:52:44;;;;;;;8.45;5.60;;;28.20;76.30;;;;;;4192786;28;20048;-65
2022/01/20 09:55:10;;;;;;;12.20;6.13;;;28.20;76.50;;;;;;4193209;28;20040;-65
2022/01/20 09:57:15;;;;;;;16.23;6.40;;;28.20;76.50;;;;;;4190707;28;20076;-65
2022/01/20 09:59:20;;;;;;;12.38;6.47;;;28.20;76.60;;;;;;4191852;28;20049;-65
2022/01/20 10:01:44;;;;;;;14.07;8.95;;;28.20;76.90;;;;;;4192895;28;20735;-65
2022/01/20 10:03:57;;;;;;;35.95;18.23;;;28.20;77.10;;;;;;4195245;28;20458;-67
2022/01/20 10:06:01;;;;;;;37.30;17.95;;;28.20;77.40;;;;;;4196187;28;20037;-64
2022/01/20 10:08:16;;;;;;;35.63;16.15;;;28.20;77.60;;;;;;4211796;28;20044;-65
2022/01/20 10:10:45;;;;;;;22.58;10.00;;;28.20;77.50;;;;;;4193997;28;20032;-64
2022/01/20 10:13:06;;;;;;;18.70;8.43;;;28.10;77.40;;;;;;4188862;28;20099;-65
2022/01/20 10:15:28;;;;;;;26.05;8.88;;;28.10;77.50;;;;;;4195695;28;20057;-65
2022/01/20 10:17:45;;;;;;;24.58;7.50;;;28.00;77.70;;;;;;4195172;28;20094;-64
2022/01/20 10:20:04;;;;;;;22.75;7.95;;;28.10;78.20;;;;;;4193815;28;20110;-64
2022/01/20 10:22:16;;;;;;;14.60;7.18;;;28.00;78.40;;;;;;4191298;28;20726;-64
2022/01/20 10:24:40;;;;;;;16.48;7.25;;;28.00;78.80;;;;;;4195854;28;20037;-63
2022/01/20 10:26:44;;;;;;;14.35;6.82;;;28.00;79.00;;;;;;4196633;28;20049;-64
2022/01/20 10:29:00;;;;;;;17.33;7.22;;;27.90;79.10;;;;;;4208338;28;20052;-62
2022/01/20 10:31:06;;;;;;;14.00;6.63;;;27.90;79.20;;;;;;4210644;28;20052;-67
2022/01/20 10:33:11;;;;;;;14.23;7.35;;;27.90;79.00;;;;;;4211197;28;20064;-63
2022/01/20 10:35:23;;;;;;;16.95;7.50;;;27.80;79.40;;;;;;4194833;28;20044;-65
2022/01/20 10:37:28;;;;;;;25.33;7.88;;;27.80;79.50;;;;;;4193474;28;20159;-64
2022/01/20 10:39:43;;;;;;;16.30;7.95;;;27.80;79.70;;;;;;4195525;28;20049;-65
2022/01/20 10:41:49;;;;;;;14.73;7.32;;;27.70;79.70;;;;;;4194237;28;20403;-64
2022/01/20 10:44:01;;;;;;;49.80;9.93;;;27.70;79.90;;;;;;4180111;28;20727;-63
2022/01/20 10:46:13;;;;;;;17.20;9.70;;;27.70;80.00;;;;;;4193808;28;20123;-64
2022/01/20 10:48:18;;;;;;;12.85;9.27;;;27.60;80.10;;;;;;4194608;28;20040;-62
2022/01/20 10:50:28;;;;;;;21.48;12.60;;;27.60;80.30;;;;;;4210552;28;20059;-62
2022/01/20 10:52:44;;;;;;;27.70;12.98;;;27.60;80.50;;;;;;4194164;28;20711;-62
2022/01/20 10:54:54;;;;;;;;;;;27.50;80.70;;;;;;4194377;28;20072;-62
2022/01/20 10:57:03;;;;;;;31.95;13.80;;;27.50;81.10;;;;;;4194394;28;19950;-66
2022/01/20 10:59:07;;;;;;;25.48;12.32;;;27.40;81.50;;;;;;4192440;28;20423;-64
2022/01/20 11:01:17;;;;;;;23.23;13.73;;;27.40;81.90;;;;;;4183764;28;20651;-63
2022/01/20 11:03:31;;;;;;;26.55;13.70;;;27.30;82.30;;;;;;4185921;28;20075;-65
2022/01/20 11:05:37;;;;;;;28.88;14.63;;;27.30;82.70;;;;;;4187120;28;20060;-65
2022/01/20 11:07:45;;;;;;;50.65;16.15;;;27.30;83.00;;;;;;4186755;28;20072;-67
2022/01/20 11:10:01;;;;;;;34.72;16.58;;;27.30;83.30;;;;;;4184811;28;20697;-67
2022/01/20 11:12:18;;;;;;;29.38;14.88;;;27.20;83.30;;;;;;4187073;28;20129;-66
2022/01/20 11:14:28;;;;;;;29.20;14.73;;;27.20;83.60;;;;;;4185492;28;20044;-66
2022/01/20 11:16:39;;;;;;;26.58;15.40;;;27.20;83.80;;;;;;4200927;28;20052;-65
2022/01/20 11:18:45;;;;;;;29.23;14.60;;;27.20;84.00;;;;;;4186081;28;20057;-66
2022/01/20 11:20:52;;;;;;;26.20;15.00;;;27.10;84.10;;;;;;4202460;28;20052;-64
2022/01/20 11:23:04;;;;;;;21.58;15.20;;;27.10;84.10;;;;;;4185269;28;20545;-65
2022/01/20 11:25:12;;;;;;;33.60;17.00;;;27.10;84.20;;;;;;4185385;28;20048;-67
2022/01/20 11:27:40;;;;;;;26.67;16.33;;;27.10;84.00;;;;;;4187608;28;20078;-65
2022/01/20 11:30:13;;;;;;;30.73;16.98;;;27.10;84.20;;;;;;4184024;28;20060;-65
2022/01/20 11:32:29;;;;;;;50.63;20.92;;;27.00;84.00;;;;;;4204074;28;20732;-67
2022/01/20 11:34:59;;;;;;;59.80;25.10;;;27.00;84.00;;;;;;4188803;28;20048;-63
2022/01/20 11:37:09;;;;;;;59.45;33.30;;;27.00;84.40;;;;;;4188390;28;20044;-64
2022/01/20 11:39:25;;;;;;;59.08;32.00;;;27.00;84.50;;;;;;4186905;28;20049;-63
2022/01/20 11:41:46;;;;;;;43.78;29.17;;;27.00;84.90;;;;;;4182707;28;20036;-63
2022/01/20 11:43:52;;;;;;;64.32;40.17;;;26.90;85.20;;;;;;4187555;28;20043;-64
2022/01/20 11:46:03;;;;;;;90.47;56.80;;;26.90;85.50;;;;;;4189106;28;20044;-66
2022/01/20 11:48:15;;;;;;;100.47;60.88;;;26.90;86.00;;;;;;4188614;28;20483;-65
2022/01/20 11:50:22;;;;;;;92.03;58.72;;;26.80;86.00;;;;;;4196422;28;20056;-65
2022/01/20 11:52:27;;;;;;;87.90;54.25;;;26.90;86.10;;;;;;4197102;28;20702;-64
2022/01/20 11:54:49;;;;;;;72.00;46.60;;;26.90;86.00;;;;;;4193579;28;20127;-65
2022/01/20 11:57:12;;;;;;;66.85;43.53;;;26.90;86.00;;;;;;4192723;28;20098;-63
2022/01/20 11:59:16;;;;;;;;;;;26.90;86.10;;;;;;4188902;28;20052;-63
2022/01/20 12:01:20;;;;;;;65.57;41.17;;;26.90;86.10;;;;;;4184892;28;19977;-63
2022/01/20 12:03:25;;;;;;;53.42;32.72;;;26.90;86.10;;;;;;4187746;28;20102;-63
2022/01/20 12:05:32;;;;;;;43.17;26.40;;;26.80;86.10;;;;;;4179176;28;20102;-63
2022/01/20 12:07:49;;;;;;;38.33;22.85;;;26.70;86.20;;;;;;4189420;28;20053;-63
2022/01/20 12:10:12;;;;;;;36.00;22.08;;;26.70;86.30;;;;;;4188368;28;20059;-63
2022/01/20 12:12:26;;;;;;;39.75;25.23;;;26.70;86.40;;;;;;4188662;28;20165;-63
2022/01/20 12:14:38;;;;;;;44.42;27.67;;;26.70;86.30;;;;;;4185849;28;20692;-62
2022/01/20 12:16:42;;;;;;;44.37;26.37;;;26.70;86.20;;;;;;4188604;28;20116;-64